Time;durP1;ratioP1;P1;durP2;ratioP2;P2;SDS_P1;SDS_P2;PMS_P1;PMS_P2;Temp;Humidity;BMP_temperature;BMP_pressure;BME280_temperature;BME280_humidity;BME280_pressure;Samples;Min_cycle;Max_cycle;Signal;HPM_P1;HPM_P2
2023/04/27 00:00:09;;;;;;;22.33;6.88;;;2.10;99.90;;;;;;5053536;28;20048;-72
2023/04/27 00:02:37;;;;;;;16.30;6.60;;;2.10;99.90;;;;;;5053579;28;20049;-73
2023/04/27 00:05:04;;;;;;;17.95;6.93;;;2.10;99.90;;;;;;5053902;28;20390;-73
2023/04/27 00:07:30;;;;;;;19.33;6.75;;;2.00;99.90;;;;;;5053389;28;20132;-73
2023/04/27 00:09:56;;;;;;;23.95;7.18;;;2.10;99.90;;;;;;5053138;28;20047;-72
2023/04/27 00:12:22;;;;;;;19.83;6.47;;;2.00;99.90;;;;;;5052388;28;20048;-74
2023/04/27 00:14:48;;;;;;;22.23;6.03;;;2.00;99.90;;;;;;5052983;28;20048;-72
2023/04/27 00:17:14;;;;;;;17.65;5.97;;;1.90;99.90;;;;;;5053195;28;20099;-72
2023/04/27 00:19:40;;;;;;;20.95;6.63;;;1.90;99.90;;;;;;5052027;28;20080;-73
2023/04/27 00:22:07;;;;;;;21.17;6.93;;;1.90;99.90;;;;;;5052122;28;20049;-73
2023/04/27 00:24:33;;;;;;;19.05;6.32;;;1.80;99.90;;;;;;5052129;28;20053;-72
2023/04/27 00:26:59;;;;;;;20.45;6.97;;;1.80;99.90;;;;;;5051871;28;20099;-74
2023/04/27 00:29:24;;;;;;;26.13;6.75;;;1.70;99.90;;;;;;5052724;28;20461;-71
2023/04/27 00:31:50;;;;;;;25.15;7.40;;;1.70;99.90;;;;;;5053083;28;20049;-72
2023/04/27 00:34:16;;;;;;;22.15;7.53;;;1.70;99.90;;;;;;5052931;28;20098;-72
2023/04/27 00:36:42;;;;;;;23.63;6.97;;;1.70;99.90;;;;;;5053107;28;20045;-73
2023/04/27 00:39:07;;;;;;;19.33;6.45;;;1.70;99.90;;;;;;5053153;28;20041;-73
2023/04/27 00:41:37;;;;;;;20.55;6.68;;;1.60;99.90;;;;;;5053028;28;20059;-73
2023/04/27 00:44:03;;;;;;;22.67;6.75;;;1.60;99.90;;;;;;5052993;28;20091;-72
2023/04/27 00:46:28;;;;;;;21.38;7.38;;;1.60;99.90;;;;;;5053524;28;20477;-73
2023/04/27 00:48:55;;;;;;;23.45;7.45;;;1.50;99.90;;;;;;5052722;28;20084;-73
2023/04/27 00:51:21;;;;;;;24.55;7.40;;;1.60;99.90;;;;;;5053438;28;20048;-73
2023/04/27 00:53:48;;;;;;;23.85;6.85;;;1.50;99.90;;;;;;5054962;28;20087;-72
2023/04/27 00:56:13;;;;;;;21.52;7.25;;;1.60;99.90;;;;;;5057137;28;20087;-72
2023/04/27 00:58:39;;;;;;;20.52;6.68;;;1.50;99.90;;;;;;5056904;28;20457;-73
2023/04/27 01:01:05;;;;;;;21.90;8.15;;;1.60;99.90;;;;;;5057015;28;20049;-72
2023/04/27 01:03:31;;;;;;;23.23;8.02;;;1.50;99.90;;;;;;5056463;28;20479;-73
2023/04/27 01:06:00;;;;;;;31.02;8.20;;;1.50;99.90;;;;;;5038881;28;20086;-72
2023/04/27 01:08:27;;;;;;;27.42;8.18;;;1.50;99.90;;;;;;5039758;28;20147;-72
2023/04/27 01:10:52;;;;;;;29.75;8.88;;;1.50;99.90;;;;;;5056695;28;20399;-73
2023/04/27 01:13:18;;;;;;;25.83;8.95;;;1.50;99.90;;;;;;5055566;28;20045;-71
2023/04/27 01:15:44;;;;;;;25.52;8.18;;;1.50;99.90;;;;;;5056791;28;20449;-72
2023/04/27 01:18:10;;;;;;;25.15;9.05;;;1.40;99.90;;;;;;5039006;28;20511;-72
2023/04/27 01:20:37;;;;;;;24.20;8.35;;;1.40;99.90;;;;;;5056252;28;20036;-74
2023/04/27 01:23:03;;;;;;;;;;;1.40;99.90;;;;;;5056516;28;20505;-72
2023/04/27 01:25:28;;;;;;;24.63;8.25;;;1.40;99.90;;;;;;5056458;28;19972;-72
2023/04/27 01:27:54;;;;;;;24.83;8.38;;;1.30;99.90;;;;;;5055857;28;20103;-72
2023/04/27 01:30:21;;;;;;;26.00;7.28;;;1.30;99.90;;;;;;5055102;28;20203;-71
2023/04/27 01:32:48;;;;;;;22.95;8.15;;;1.30;99.90;;;;;;5055289;28;20080;-71
2023/04/27 01:35:14;;;;;;;23.38;7.70;;;1.30;99.90;;;;;;5056234;28;20515;-71
2023/04/27 01:37:40;;;;;;;24.85;8.18;;;1.30;99.90;;;;;;5056241;28;20044;-71
2023/04/27 01:40:07;;;;;;;24.00;7.82;;;1.30;99.90;;;;;;5054993;28;20064;-72
2023/04/27 01:42:32;;;;;;;27.35;8.45;;;1.30;99.90;;;;;;5055946;28;20041;-72
2023/04/27 01:44:59;;;;;;;29.05;7.97;;;1.30;99.90;;;;;;5054946;28;20072;-71
2023/04/27 01:47:25;;;;;;;27.85;8.93;;;1.20;99.90;;;;;;5054604;28;20048;-71
2023/04/27 01:49:51;;;;;;;29.48;9.25;;;1.20;99.90;;;;;;5054559;28;20047;-72
2023/04/27 01:52:17;;;;;;;30.15;7.78;;;1.20;99.90;;;;;;5038912;28;20056;-73
2023/04/27 01:54:42;;;;;;;24.63;8.45;;;1.10;99.90;;;;;;5054452;28;20397;-72
2023/04/27 01:57:08;;;;;;;35.85;10.35;;;1.10;99.90;;;;;;5055586;28;20044;-71
2023/04/27 01:59:34;;;;;;;29.27;8.43;;;1.00;99.90;;;;;;5056477;28;20484;-71
2023/04/27 02:02:00;;;;;;;21.48;7.63;;;1.00;99.90;;;;;;5055546;28;20123;-72
2023/04/27 02:04:25;;;;;;;19.42;7.28;;;1.00;99.90;;;;;;5054085;28;20368;-72
2023/04/27 02:06:51;;;;;;;22.45;6.13;;;0.90;99.90;;;;;;5056073;28;20055;-73
2023/04/27 02:09:17;;;;;;;20.60;6.20;;;0.90;99.90;;;;;;5055274;28;20076;-74
2023/04/27 02:11:43;;;;;;;19.08;6.70;;;1.00;99.90;;;;;;5055456;28;20128;-73
2023/04/27 02:14:08;;;;;;;17.80;6.00;;;0.80;99.90;;;;;;5055179;28;20473;-72
2023/04/27 02:16:34;;;;;;;15.10;5.97;;;0.80;99.90;;;;;;5055092;28;20052;-73
2023/04/27 02:19:01;;;;;;;16.50;6.15;;;0.80;99.90;;;;;;5055240;28;20045;-73
2023/04/27 02:21:28;;;;;;;20.25;6.50;;;0.80;99.90;;;;;;5038548;28;20390;-73
2023/04/27 02:23:54;;;;;;;18.33;6.47;;;0.80;99.90;;;;;;5037683;28;20429;-72
2023/04/27 02:26:27;;;;;;;17.00;5.90;;;0.80;99.90;;;;;;5053821;28;20072;-73
2023/04/27 02:28:55;;;;;;;16.50;6.28;;;0.80;99.90;;;;;;5038243;28;20053;-72
2023/04/27 02:31:21;;;;;;;;;;;0.80;99.90;;;;;;5054445;28;20055;-73
2023/04/27 02:33:46;;;;;;;18.30;6.30;;;0.80;99.90;;;;;;5037181;28;19920;-73
2023/04/27 02:36:12;;;;;;;20.60;6.65;;;0.80;99.90;;;;;;5053597;28;20045;-73
2023/04/27 02:38:38;;;;;;;26.83;7.93;;;0.80;99.90;;;;;;5021669;28;20051;-73
2023/04/27 02:41:04;;;;;;;32.92;8.18;;;0.70;99.90;;;;;;5054545;28;20071;-73
2023/04/27 02:43:29;;;;;;;25.70;7.50;;;0.80;99.90;;;;;;5054648;28;20095;-73
2023/04/27 02:45:55;;;;;;;25.27;8.70;;;0.80;99.90;;;;;;5054804;28;20473;-72
2023/04/27 02:48:21;;;;;;;35.33;8.88;;;0.70;99.90;;;;;;5054329;28;20103;-72
2023/04/27 02:50:46;;;;;;;27.27;8.27;;;0.70;99.90;;;;;;5053435;28;20080;-73
2023/04/27 02:53:12;;;;;;;25.30;7.82;;;0.80;99.90;;;;;;5055017;28;20127;-72
2023/04/27 02:55:45;;;;;;;21.77;7.28;;;0.70;99.90;;;;;;5054651;28;20052;-73
2023/04/27 02:58:10;;;;;;;23.33;7.28;;;0.80;99.90;;;;;;5054572;28;20099;-73
2023/04/27 03:00:36;;;;;;;18.73;7.13;;;0.70;99.90;;;;;;5053535;28;20052;-73
2023/04/27 03:03:02;;;;;;;24.63;7.45;;;0.80;99.90;;;;;;5054435;28;20385;-72
2023/04/27 03:05:30;;;;;;;23.67;7.70;;;0.80;99.90;;;;;;5036779;28;20048;-73
2023/04/27 03:07:56;;;;;;;19.45;7.03;;;0.70;99.90;;;;;;5053010;28;20053;-72
2023/04/27 03:10:21;;;;;;;20.67;6.78;;;0.80;99.90;;;;;;5054639;28;20044;-73
2023/04/27 03:12:47;;;;;;;21.08;7.20;;;0.70;99.90;;;;;;5053084;28;20078;-73
2023/04/27 03:15:13;;;;;;;19.42;7.00;;;0.70;99.90;;;;;;5054258;28;20385;-72
2023/04/27 03:17:38;;;;;;;19.77;8.00;;;0.70;99.90;;;;;;5054073;28;20053;-73
2023/04/27 03:20:09;;;;;;;23.95;8.18;;;0.70;99.90;;;;;;5053038;28;20088;-73
2023/04/27 03:22:37;;;;;;;22.73;7.78;;;0.70;99.90;;;;;;5054790;28;20119;-72
2023/04/27 03:25:04;;;;;;;22.13;7.70;;;0.70;99.90;;;;;;5036703;28;20049;-73
2023/04/27 03:27:30;;;;;;;21.77;7.83;;;0.60;99.90;;;;;;5053787;28;20064;-73
2023/04/27 03:29:55;;;;;;;22.42;8.35;;;0.60;99.90;;;;;;5053820;28;20045;-72
2023/04/27 03:32:21;;;;;;;23.85;9.00;;;0.50;99.90;;;;;;5054405;28;20473;-73
2023/04/27 03:34:47;;;;;;;25.98;8.85;;;0.50;99.90;;;;;;5035889;28;20477;-72
2023/04/27 03:37:12;;;;;;;22.63;8.25;;;0.50;99.90;;;;;;5052578;28;20044;-72
2023/04/27 03:39:38;;;;;;;23.80;8.80;;;0.40;99.90;;;;;;5053714;28;20037;-72
2023/04/27 03:42:04;;;;;;;26.27;8.73;;;0.40;99.90;;;;;;5053610;28;20049;-72
2023/04/27 03:44:32;;;;;;;25.48;8.88;;;0.40;99.90;;;;;;5053786;28;20051;-73
2023/04/27 03:46:58;;;;;;;29.58;9.88;;;0.30;99.90;;;;;;5053521;28;20049;-72
2023/04/27 03:49:24;;;;;;;26.98;9.52;;;0.30;99.90;;;;;;5053538;28;20083;-72
2023/04/27 03:51:50;;;;;;;21.75;8.65;;;0.30;99.90;;;;;;5053644;28;20090;-72
2023/04/27 03:54:16;;;;;;;28.10;10.25;;;0.30;99.90;;;;;;5052632;28;20045;-72
2023/04/27 03:56:43;;;;;;;29.88;9.57;;;0.30;99.90;;;;;;5054304;28;20060;-73
2023/04/27 03:59:09;;;;;;;35.42;10.23;;;0.30;99.90;;;;;;5055947;28;20081;-71
2023/04/27 04:01:35;;;;;;;31.30;9.10;;;0.30;99.90;;;;;;5055947;28;20075;-73
2023/04/27 04:04:01;;;;;;;24.02;8.80;;;0.30;99.90;;;;;;5054901;28;20041;-72
2023/04/27 04:06:26;;;;;;;26.48;8.48;;;0.30;99.90;;;;;;5055038;28;20126;-72
2023/04/27 04:08:53;;;;;;;27.13;8.63;;;0.20;99.90;;;;;;5052926;28;20048;-73
2023/04/27 04:11:19;;;;;;;22.63;8.97;;;0.30;99.90;;;;;;5053004;28;20049;-72
2023/04/27 04:13:46;;;;;;;24.63;8.05;;;0.30;99.90;;;;;;5054458;28;20275;-73
2023/04/27 04:16:12;;;;;;;26.73;8.15;;;0.20;99.90;;;;;;5035561;28;20045;-73
2023/04/27 04:18:38;;;;;;;23.85;8.30;;;0.30;99.90;;;;;;5053191;28;20049;-73
2023/04/27 04:21:04;;;;;;;24.05;9.00;;;0.30;99.90;;;;;;5051892;28;20056;-73
2023/04/27 04:23:31;;;;;;;26.15;8.70;;;0.30;99.90;;;;;;5051823;28;20070;-72
2023/04/27 04:25:57;;;;;;;24.40;8.40;;;0.30;99.90;;;;;;5053763;28;20059;-72
2023/04/27 04:28:24;;;;;;;26.90;9.00;;;0.40;99.90;;;;;;5052166;28;20057;-72
2023/04/27 04:30:50;;;;;;;22.83;8.53;;;0.40;99.90;;;;;;5053772;28;20392;-72
2023/04/27 04:33:16;;;;;;;28.70;9.87;;;0.40;99.90;;;;;;5053244;28;20053;-76
2023/04/27 04:35:42;;;;;;;25.35;8.63;;;0.40;99.90;;;;;;5053183;28;20132;-73
2023/04/27 04:38:09;;;;;;;24.45;8.85;;;0.40;99.90;;;;;;5051834;28;20045;-73
2023/04/27 04:40:37;;;;;;;29.73;9.07;;;0.40;99.90;;;;;;5035646;28;20052;-72
2023/04/27 04:43:02;;;;;;;22.83;7.97;;;0.40;99.90;;;;;;5053018;28;20049;-72
2023/04/27 04:45:28;;;;;;;28.13;9.70;;;0.50;99.90;;;;;;5051732;28;20060;-73
2023/04/27 04:47:54;;;;;;;29.00;10.05;;;0.60;99.90;;;;;;5035084;28;20136;-73
2023/04/27 04:50:20;;;;;;;30.58;11.13;;;0.60;99.90;;;;;;5052773;28;20053;-73
2023/04/27 04:52:45;;;;;;;27.67;9.43;;;0.60;99.90;;;;;;5053195;28;20052;-72
2023/04/27 04:55:11;;;;;;;27.15;8.95;;;0.70;99.90;;;;;;5036073;28;20374;-72
2023/04/27 04:57:37;;;;;;;28.15;9.38;;;0.80;99.90;;;;;;5052802;28;20109;-73
2023/04/27 05:00:05;;;;;;;32.70;10.88;;;0.90;99.90;;;;;;5051919;28;20506;-73
2023/04/27 05:02:31;;;;;;;29.95;9.68;;;1.00;99.90;;;;;;5052520;28;20049;-72
2023/04/27 05:04:57;;;;;;;24.08;9.20;;;1.10;99.90;;;;;;5053443;28;20477;-73
2023/04/27 05:07:22;;;;;;;26.17;8.50;;;1.10;99.90;;;;;;5053411;28;20128;-73
2023/04/27 05:09:48;;;;;;;26.52;8.82;;;1.20;99.90;;;;;;5052709;28;20051;-72
2023/04/27 05:12:14;;;;;;;26.95;8.43;;;1.10;99.90;;;;;;5052011;28;20045;-72
2023/04/27 05:14:40;;;;;;;24.33;9.80;;;1.30;99.90;;;;;;5051548;28;20477;-72
2023/04/27 05:17:05;;;;;;;26.40;9.02;;;1.40;99.90;;;;;;5035377;28;20092;-72
2023/04/27 05:19:31;;;;;;;25.98;9.38;;;1.50;99.90;;;;;;5051575;28;20056;-73
2023/04/27 05:21:57;;;;;;;22.13;8.30;;;1.70;99.90;;;;;;5034479;28;20060;-73
2023/04/27 05:24:25;;;;;;;29.40;9.93;;;1.70;99.90;;;;;;5051339;28;20051;-73
2023/04/27 05:26:50;;;;;;;;;;;1.80;99.90;;;;;;5051529;28;20070;-73
2023/04/27 05:29:16;;;;;;;28.55;9.95;;;2.10;99.90;;;;;;5052512;28;19921;-73
2023/04/27 05:31:42;;;;;;;31.15;10.63;;;2.30;99.90;;;;;;5051601;28;20051;-72
2023/04/27 05:34:08;;;;;;;31.05;10.60;;;2.40;99.90;;;;;;5053278;28;20122;-74
2023/04/27 05:36:35;;;;;;;33.13;11.82;;;2.50;99.90;;;;;;5052587;28;20401;-72
2023/04/27 05:39:01;;;;;;;32.97;10.80;;;2.60;99.90;;;;;;5054204;28;20128;-73
2023/04/27 05:41:28;;;;;;;31.80;12.55;;;2.80;99.90;;;;;;5055952;28;20087;-73
2023/04/27 05:43:54;;;;;;;31.48;11.48;;;2.80;99.90;;;;;;5055034;28;20045;-73
2023/04/27 05:46:20;;;;;;;31.33;11.13;;;2.90;99.90;;;;;;5056728;28;20048;-72
2023/04/27 05:48:46;;;;;;;26.38;10.13;;;3.00;99.90;;;;;;5055416;28;20473;-73
2023/04/27 05:51:12;;;;;;;37.38;11.32;;;3.10;99.90;;;;;;5056260;28;20049;-74
2023/04/27 05:53:38;;;;;;;27.70;10.68;;;3.10;99.90;;;;;;5056037;28;20049;-72
2023/04/27 05:56:05;;;;;;;32.20;11.48;;;3.30;99.90;;;;;;5055690;28;20084;-73
2023/04/27 05:58:32;;;;;;;31.33;10.88;;;3.30;99.90;;;;;;5054692;28;20052;-72
2023/04/27 06:00:59;;;;;;;27.92;10.45;;;3.30;99.90;;;;;;5037980;28;20052;-74
2023/04/27 06:03:25;;;;;;;29.63;10.30;;;3.50;99.90;;;;;;5054440;28;20049;-73
2023/04/27 06:05:58;;;;;;;34.92;10.63;;;3.60;99.90;;;;;;5055824;28;20045;-73
2023/04/27 06:08:24;;;;;;;29.55;10.30;;;3.70;99.90;;;;;;5054511;28;20048;-73
2023/04/27 06:10:50;;;;;;;34.45;10.45;;;3.80;99.90;;;;;;5054176;28;20052;-73
2023/04/27 06:13:17;;;;;;;28.52;9.80;;;3.80;99.90;;;;;;5055632;28;20190;-73
2023/04/27 06:15:43;;;;;;;33.47;9.60;;;3.90;99.90;;;;;;5055381;28;20057;-73
2023/04/27 06:18:09;;;;;;;31.08;10.32;;;4.00;99.90;;;;;;5054957;28;20283;-73
2023/04/27 06:20:35;;;;;;;28.35;9.38;;;4.10;99.90;;;;;;5054932;28;20083;-73
2023/04/27 06:23:01;;;;;;;25.33;9.73;;;4.20;99.90;;;;;;5055226;28;20048;-72
2023/04/27 06:25:27;;;;;;;29.60;9.82;;;4.30;99.90;;;;;;5055259;28;20055;-72
2023/04/27 06:27:57;;;;;;;33.33;11.15;;;4.30;99.90;;;;;;5053597;28;20061;-72
2023/04/27 06:30:23;;;;;;;33.00;9.20;;;4.40;99.90;;;;;;5053875;28;20394;-71
2023/04/27 06:32:50;;;;;;;28.92;9.50;;;4.60;99.90;;;;;;5055439;28;20076;-72
2023/04/27 06:35:17;;;;;;;25.63;9.18;;;4.70;99.90;;;;;;5055097;28;20057;-72
2023/04/27 06:37:43;;;;;;;24.73;8.60;;;4.70;99.90;;;;;;5054557;28;20482;-72
2023/04/27 06:40:10;;;;;;;24.88;8.00;;;4.90;99.90;;;;;;5053683;28;20287;-71
2023/04/27 06:42:36;;;;;;;23.58;8.32;;;5.00;99.90;;;;;;5054137;28;20098;-72
2023/04/27 06:45:02;;;;;;;26.58;8.50;;;5.00;99.90;;;;;;5053894;28;20053;-72
2023/04/27 06:47:28;;;;;;;25.02;8.05;;;5.10;99.90;;;;;;5053811;28;20052;-73
2023/04/27 06:49:54;;;;;;;21.52;8.13;;;5.20;99.90;;;;;;5037036;28;20049;-72
2023/04/27 06:52:20;;;;;;;20.80;7.90;;;5.40;99.90;;;;;;5054558;28;20044;-72
2023/04/27 06:54:45;;;;;;;23.85;7.95;;;5.50;99.90;;;;;;5054889;28;20049;-72
2023/04/27 06:57:11;;;;;;;20.60;6.80;;;5.60;99.90;;;;;;5052979;28;20045;-72
2023/04/27 06:59:37;;;;;;;22.77;7.75;;;5.80;99.90;;;;;;5054885;28;20037;-72
2023/04/27 07:02:03;;;;;;;22.42;7.40;;;5.90;99.90;;;;;;5054340;28;20053;-72
2023/04/27 07:04:29;;;;;;;22.08;6.95;;;6.00;99.90;;;;;;5036557;28;20051;-73
2023/04/27 07:06:55;;;;;;;20.45;7.40;;;6.10;99.90;;;;;;5054064;28;20049;-72
2023/04/27 07:09:21;;;;;;;24.30;6.93;;;6.20;99.90;;;;;;5054218;28;20045;-72
2023/04/27 07:11:46;;;;;;;21.23;7.50;;;6.40;99.90;;;;;;5053956;28;20453;-72
2023/04/27 07:14:12;;;;;;;19.38;7.18;;;6.50;99.90;;;;;;5036696;28;20055;-72
2023/04/27 07:16:38;;;;;;;15.70;6.38;;;6.60;99.90;;;;;;5054540;28;20051;-72
2023/04/27 07:19:04;;;;;;;16.92;6.38;;;6.70;99.90;;;;;;5037259;28;20165;-72
2023/04/27 07:21:30;;;;;;;16.30;5.35;;;6.80;99.90;;;;;;5037235;28;20381;-72
2023/04/27 07:23:56;;;;;;;16.42;5.63;;;6.90;99.90;;;;;;5054291;28;20393;-73
2023/04/27 07:26:22;;;;;;;22.48;6.80;;;7.00;99.90;;;;;;5036433;28;20153;-72
2023/04/27 07:28:49;;;;;;;20.45;5.95;;;7.10;99.90;;;;;;5052049;28;20065;-73
2023/04/27 07:31:15;;;;;;;16.50;5.97;;;7.20;99.90;;;;;;5054080;28;20056;-72
2023/04/27 07:33:40;;;;;;;20.83;6.47;;;7.30;99.90;;;;;;5053492;28;20049;-73
2023/04/27 07:36:06;;;;;;;14.40;4.72;;;7.50;99.90;;;;;;5053692;28;20485;-73
2023/04/27 07:38:32;;;;;;;14.07;4.65;;;7.60;99.90;;;;;;5053128;28;20469;-72
2023/04/27 07:41:09;;;;;;;16.55;6.32;;;7.60;99.90;;;;;;5035850;28;20053;-74
2023/04/27 07:43:34;;;;;;;19.48;6.20;;;7.80;99.90;;;;;;5052899;28;20091;-74
2023/04/27 07:46:00;;;;;;;17.38;5.88;;;7.90;99.90;;;;;;5053582;28;20095;-73
2023/04/27 07:48:27;;;;;;;15.60;4.50;;;7.90;99.90;;;;;;5054344;28;20424;-74
2023/04/27 07:50:53;;;;;;;21.70;4.63;;;8.00;99.90;;;;;;5053462;28;20043;-72
2023/04/27 07:53:20;;;;;;;13.20;4.88;;;8.00;99.90;;;;;;5053618;28;20101;-71
2023/04/27 07:55:46;;;;;;;12.67;4.20;;;8.20;99.90;;;;;;5052852;28;20071;-73
2023/04/27 07:58:12;;;;;;;15.20;4.53;;;8.20;99.90;;;;;;5053876;28;20045;-73
2023/04/27 08:00:37;;;;;;;15.25;4.93;;;8.30;99.90;;;;;;5052451;28;20079;-73
2023/04/27 08:03:03;;;;;;;16.27;5.13;;;8.40;99.90;;;;;;5052475;28;20056;-73
2023/04/27 08:05:29;;;;;;;18.30;5.53;;;8.40;99.90;;;;;;5053343;28;20044;-73
2023/04/27 08:07:55;;;;;;;19.00;5.60;;;8.50;99.90;;;;;;5052088;28;20508;-73
2023/04/27 08:10:22;;;;;;;15.50;5.10;;;8.60;99.90;;;;;;5052338;28;20041;-73
2023/04/27 08:12:48;;;;;;;;;;;8.60;99.90;;;;;;5053504;28;20052;-72
2023/04/27 08:15:14;;;;;;;20.67;4.75;;;8.70;99.90;;;;;;5052084;28;20376;-73
2023/04/27 08:17:40;;;;;;;16.23;5.50;;;8.80;99.90;;;;;;5053437;28;20045;-72
2023/04/27 08:20:10;;;;;;;20.02;5.30;;;8.70;99.90;;;;;;5053334;28;20099;-74
2023/04/27 08:22:37;;;;;;;20.48;4.90;;;8.80;99.90;;;;;;5052327;28;20055;-73
2023/04/27 08:25:03;;;;;;;17.13;5.80;;;8.90;99.90;;;;;;5035493;28;20084;-72
2023/04/27 08:27:29;;;;;;;13.03;4.73;;;9.00;99.90;;;;;;5035454;28;20402;-72
2023/04/27 08:29:55;;;;;;;15.35;5.18;;;9.00;99.90;;;;;;5053017;28;20318;-73
2023/04/27 08:32:21;;;;;;;14.35;3.95;;;9.10;99.90;;;;;;5053848;28;20049;-72
2023/04/27 08:34:47;;;;;;;13.20;3.97;;;9.20;99.90;;;;;;5053934;28;20408;-73
2023/04/27 08:37:12;;;;;;;14.15;3.95;;;9.30;99.90;;;;;;5035022;28;20103;-73
2023/04/27 08:39:39;;;;;;;13.63;4.35;;;9.30;99.90;;;;;;5053264;28;20045;-74
2023/04/27 08:42:12;;;;;;;9.20;3.33;;;9.30;99.90;;;;;;5053138;28;20111;-75
2023/04/27 08:44:42;;;;;;;14.10;3.58;;;9.50;99.90;;;;;;5053513;28;20095;-73
2023/04/27 08:47:08;;;;;;;7.90;3.00;;;9.50;99.90;;;;;;5052662;28;20512;-74
2023/04/27 08:49:34;;;;;;;11.50;3.47;;;9.60;99.90;;;;;;5053702;28;20432;-73
2023/04/27 08:52:01;;;;;;;8.75;3.25;;;9.60;99.90;;;;;;5054031;28;20045;-73
2023/04/27 08:54:26;;;;;;;14.20;4.50;;;9.60;99.90;;;;;;5054987;28;20097;-73
2023/04/27 08:56:52;;;;;;;11.02;3.45;;;9.70;99.90;;;;;;5054262;28;20053;-75
2023/04/27 08:59:18;;;;;;;12.68;4.10;;;9.70;99.90;;;;;;5053625;28;20068;-73
2023/04/27 09:01:48;;;;;;;9.60;3.60;;;9.80;99.90;;;;;;5052910;28;20044;-73
2023/04/27 09:04:14;;;;;;;8.57;3.50;;;9.90;99.90;;;;;;5053074;28;20505;-75
2023/04/27 09:06:40;;;;;;;9.37;3.63;;;9.90;99.90;;;;;;5052763;28;20055;-75
2023/04/27 09:09:06;;;;;;;10.05;3.40;;;9.90;99.90;;;;;;5052586;28;20045;-73
2023/04/27 09:11:33;;;;;;;11.02;3.80;;;10.10;99.90;;;;;;5051658;28;20434;-74
2023/04/27 09:14:00;;;;;;;;;;;10.20;99.90;;;;;;5053346;28;20044;-72
2023/04/27 09:16:27;;;;;;;12.20;3.70;;;10.30;99.90;;;;;;5090009;28;19928;-73
2023/04/27 09:18:55;;;;;;;11.38;3.80;;;10.30;99.90;;;;;;5056499;28;20053;-73
2023/04/27 09:21:27;;;;;;;11.23;3.67;;;10.30;99.90;;;;;;5055760;28;20385;-72
2023/04/27 09:23:53;;;;;;;12.35;4.00;;;10.30;99.90;;;;;;5039054;28;20053;-73
2023/04/27 09:26:21;;;;;;;12.05;3.78;;;10.40;99.90;;;;;;5072259;28;20415;-74
2023/04/27 09:28:49;;;;;;;13.27;3.58;;;10.50;99.90;;;;;;5056495;28;20136;-72
2023/04/27 09:31:15;;;;;;;8.07;3.25;;;10.30;98.50;;;;;;5055819;28;20558;-75
2023/04/27 09:33:44;;;;;;;10.32;3.58;;;10.30;99.30;;;;;;5056982;28;20124;-73
2023/04/27 09:36:10;;;;;;;11.10;3.97;;;10.30;99.90;;;;;;5056063;28;20044;-73
2023/04/27 09:38:36;;;;;;;9.70;3.00;;;10.30;99.00;;;;;;5056670;28;20098;-73
2023/04/27 09:41:02;;;;;;;9.68;3.85;;;10.40;99.90;;;;;;5056766;28;20476;-73
2023/04/27 09:43:30;;;;;;;14.88;3.70;;;10.60;99.90;;;;;;5039353;28;20141;-74
2023/04/27 09:45:57;;;;;;;12.65;3.60;;;10.60;99.40;;;;;;5055861;28;20041;-72
2023/04/27 09:48:23;;;;;;;10.68;3.45;;;10.70;99.00;;;;;;5054728;28;20092;-73
2023/04/27 09:50:50;;;;;;;8.52;3.80;;;10.80;99.90;;;;;;5055735;28;20135;-73
2023/04/27 09:53:19;;;;;;;9.02;3.83;;;10.80;99.90;;;;;;5055512;28;20041;-72
2023/04/27 09:56:15;;;;;;;11.60;3.65;;;11.00;99.90;;;;;;5055810;28;20187;-73
2023/04/27 09:59:22;;;;;;;12.80;3.75;;;11.20;99.90;;;;;;5056581;28;20052;-74
2023/04/27 10:01:53;;;;;;;11.85;5.22;;;11.10;98.00;;;;;;5039283;28;20049;-74
2023/04/27 10:04:38;;;;;;;12.40;4.50;;;11.30;99.70;;;;;;5055659;28;20060;-74
2023/04/27 10:07:08;;;;;;;13.25;4.07;;;11.30;97.40;;;;;;5055631;28;20102;-74
2023/04/27 10:09:38;;;;;;;10.93;4.28;;;11.20;95.40;;;;;;5055451;28;20104;-73
2023/04/27 10:12:19;;;;;;;11.10;4.22;;;11.00;93.80;;;;;;5055422;28;20049;-74
2023/04/27 10:14:55;;;;;;;12.77;3.85;;;11.10;96.10;;;;;;5055947;28;20508;-74
2023/04/27 10:17:32;;;;;;;11.90;3.72;;;11.10;95.50;;;;;;5054654;28;20053;-74
2023/04/27 10:20:00;;;;;;;;;;;11.30;97.20;;;;;;5054598;28;20053;-73
2023/04/27 10:22:42;;;;;;;10.73;3.70;;;11.00;95.90;;;;;;5055243;28;20003;-73
2023/04/27 10:25:29;;;;;;;13.63;4.22;;;11.30;97.10;;;;;;5054099;28;20444;-75
2023/04/27 10:28:00;;;;;;;10.65;4.55;;;11.60;98.20;;;;;;5055000;28;20052;-74
2023/04/27 10:30:36;;;;;;;11.98;5.10;;;11.70;97.70;;;;;;5055136;28;20500;-75
2023/04/27 10:33:08;;;;;;;10.60;4.55;;;11.90;98.20;;;;;;5055175;28;20123;-75
2023/04/27 10:35:41;;;;;;;11.63;5.10;;;12.10;98.60;;;;;;5055082;28;20056;-73
2023/04/27 10:38:19;;;;;;;12.43;4.63;;;12.20;96.60;;;;;;5054139;28;20055;-74
2023/04/27 10:40:56;;;;;;;12.40;4.32;;;12.20;95.40;;;;;;5055966;28;20053;-73
2023/04/27 10:43:26;;;;;;;;;;;12.40;95.50;;;;;;5056197;28;20049;-74
2023/04/27 10:45:51;;;;;;;14.02;4.43;;;12.30;95.70;;;;;;5054765;28;20264;-76
2023/04/27 10:48:17;;;;;;;9.80;4.30;;;12.50;97.00;;;;;;5054385;28;20126;-72
2023/04/27 10:50:44;;;;;;;10.27;4.40;;;12.60;97.40;;;;;;5054821;28;20127;-73
2023/04/27 10:53:10;;;;;;;12.05;4.70;;;12.60;96.00;;;;;;5055643;28;20119;-75
2023/04/27 10:55:36;;;;;;;11.82;5.10;;;12.50;92.90;;;;;;5054945;28;20546;-74
2023/04/27 10:58:02;;;;;;;10.50;4.65;;;12.40;93.50;;;;;;5036934;28;20179;-74
2023/04/27 11:00:37;;;;;;;13.40;4.70;;;12.50;95.40;;;;;;5054765;28;20049;-74
2023/04/27 11:03:16;;;;;;;11.05;4.53;;;12.70;95.80;;;;;;5036910;28;20071;-74
2023/04/27 11:05:46;;;;;;;11.60;4.90;;;12.90;95.90;;;;;;5054726;28;20397;-75
2023/04/27 11:08:17;;;;;;;9.18;4.40;;;12.80;92.90;;;;;;5054542;28;20047;-74
2023/04/27 11:10:48;;;;;;;13.73;4.90;;;13.00;95.80;;;;;;5054527;28;20037;-75
2023/04/27 11:13:16;;;;;;;10.45;4.78;;;12.60;94.30;;;;;;5053401;28;20477;-74
2023/04/27 11:16:00;;;;;;;12.75;4.90;;;12.90;95.20;;;;;;5054516;28;20131;-73
2023/04/27 11:18:29;;;;;;;9.82;4.32;;;13.20;94.50;;;;;;5036790;28;20048;-74
2023/04/27 11:21:16;;;;;;;11.90;5.22;;;13.20;94.40;;;;;;5053304;28;20104;-74
2023/04/27 11:23:42;;;;;;;14.18;4.60;;;13.10;92.70;;;;;;5055088;28;20053;-73
2023/04/27 11:26:16;;;;;;;11.43;4.63;;;13.10;92.70;;;;;;5054221;28;20047;-73
2023/04/27 11:28:43;;;;;;;9.98;5.07;;;13.30;93.60;;;;;;5052911;28;20088;-74
2023/04/27 11:31:10;;;;;;;10.88;4.85;;;13.00;91.80;;;;;;5036016;28;20049;-73
2023/04/27 11:33:38;;;;;;;10.63;4.38;;;12.90;91.80;;;;;;5054135;28;20481;-74
2023/04/27 11:36:15;;;;;;;8.52;4.60;;;13.10;92.00;;;;;;5053401;28;20132;-74
2023/04/27 11:38:41;;;;;;;14.07;4.95;;;13.00;91.30;;;;;;5053152;28;20056;-74
2023/04/27 11:41:07;;;;;;;11.32;5.07;;;13.00;87.50;;;;;;5054083;28;20110;-73
2023/04/27 11:43:34;;;;;;;15.10;5.55;;;13.00;90.70;;;;;;5036081;28;20049;-73
2023/04/27 11:46:04;;;;;;;11.45;4.47;;;13.30;91.40;;;;;;5054023;28;20048;-73
2023/04/27 11:48:30;;;;;;;11.18;4.38;;;13.20;91.20;;;;;;5053618;28;20080;-73
2023/04/27 11:51:00;;;;;;;13.80;5.38;;;12.90;88.50;;;;;;5053786;28;20106;-74
2023/04/27 11:53:34;;;;;;;12.63;5.40;;;12.50;88.00;;;;;;5053669;28;20091;-73
2023/04/27 11:56:05;;;;;;;10.63;4.72;;;12.80;87.10;;;;;;5053548;28;20347;-74
2023/04/27 11:58:35;;;;;;;10.90;5.10;;;13.00;90.10;;;;;;5054235;28;20048;-74
2023/04/27 12:01:02;;;;;;;11.18;5.00;;;13.10;90.20;;;;;;5036063;28;20533;-74
2023/04/27 12:03:28;;;;;;;12.77;5.00;;;13.10;87.30;;;;;;5053601;28;20053;-74
2023/04/27 12:05:54;;;;;;;11.88;4.50;;;13.00;86.00;;;;;;5052452;28;20048;-74
2023/04/27 12:08:20;;;;;;;8.60;4.07;;;13.00;88.80;;;;;;5052881;28;20354;-75
2023/04/27 12:10:46;;;;;;;10.85;4.70;;;13.20;89.60;;;;;;5052408;28;20045;-74
2023/04/27 12:13:13;;;;;;;10.25;4.10;;;13.00;83.30;;;;;;5052640;28;20619;-73
2023/04/27 12:15:39;;;;;;;10.30;4.18;;;13.30;87.90;;;;;;5053203;28;20520;-74
2023/04/27 12:18:05;;;;;;;11.10;4.65;;;13.60;90.10;;;;;;5052782;28;20048;-73
2023/04/27 12:20:32;;;;;;;8.55;4.95;;;13.70;91.10;;;;;;5053491;28;20049;-74
2023/04/27 12:22:57;;;;;;;9.77;4.75;;;13.70;87.20;;;;;;5052959;28;20088;-73
2023/04/27 12:25:23;;;;;;;10.95;4.95;;;13.10;85.90;;;;;;5052930;28;20091;-73
2023/04/27 12:27:49;;;;;;;10.23;4.85;;;13.30;86.90;;;;;;5052481;28;20136;-73
2023/04/27 12:30:16;;;;;;;9.97;4.60;;;13.60;90.10;;;;;;5053273;28;20406;-74
2023/04/27 12:32:42;;;;;;;9.43;4.70;;;13.50;86.00;;;;;;5053232;28;20045;-74
2023/04/27 12:35:09;;;;;;;10.93;4.88;;;13.60;83.70;;;;;;5052126;28;20048;-74
2023/04/27 12:37:35;;;;;;;9.55;4.35;;;13.30;82.40;;;;;;5053766;28;20389;-72
2023/04/27 12:40:05;;;;;;;12.13;4.40;;;13.40;81.50;;;;;;5053013;28;20548;-74
2023/04/27 12:42:31;;;;;;;9.07;3.75;;;13.90;87.20;;;;;;5053186;28;20048;-74
2023/04/27 12:44:57;;;;;;;11.13;4.35;;;14.00;79.80;;;;;;5053188;28;20128;-74